Time;durP1;ratioP1;P1;durP2;ratioP2;P2;SDS_P1;SDS_P2;PMS_P1;PMS_P2;Temp;Humidity;BMP_temperature;BMP_pressure;BME280_temperature;BME280_humidity;BME280_pressure;Samples;Min_cycle;Max_cycle;Signal;HPM_P1;HPM_P2
2021/10/30 00:01:14;;;;;;;10.27;8.93;;;7.30;99.90;;;;;;5112864;28;20200;-62
2021/10/30 00:03:41;;;;;;;9.90;8.33;;;7.40;99.90;;;;;;5112689;28;20199;-60
2021/10/30 00:06:08;;;;;;;11.43;8.63;;;7.30;99.90;;;;;;5112489;28;20200;-61
2021/10/30 00:08:35;;;;;;;9.73;8.47;;;7.30;99.90;;;;;;5112684;28;20232;-61
2021/10/30 00:11:01;;;;;;;10.50;7.90;;;7.20;99.90;;;;;;5111962;28;20208;-61
2021/10/30 00:13:30;;;;;;;11.97;9.27;;;7.20;99.90;;;;;;5112638;28;20223;-62
2021/10/30 00:15:58;;;;;;;9.33;8.33;;;7.20;99.90;;;;;;5112866;28;20211;-61
2021/10/30 00:18:25;;;;;;;9.93;7.83;;;7.10;99.90;;;;;;5112697;28;20223;-61
2021/10/30 00:20:52;;;;;;;9.63;8.10;;;7.00;99.90;;;;;;5113118;28;20203;-61
2021/10/30 00:23:18;;;;;;;14.00;8.30;;;7.00;99.90;;;;;;5112898;28;20207;-61
2021/10/30 00:25:45;;;;;;;10.17;8.70;;;7.00;99.90;;;;;;5112865;28;20206;-61
2021/10/30 00:28:12;;;;;;;10.90;8.47;;;6.90;99.90;;;;;;5112484;28;20418;-60
2021/10/30 00:30:40;;;;;;;10.80;8.73;;;7.00;99.90;;;;;;5112708;28;20231;-61
2021/10/30 00:33:07;;;;;;;10.07;9.03;;;6.90;99.90;;;;;;5112763;28;20281;-61
2021/10/30 00:35:34;;;;;;;10.07;8.63;;;7.00;99.90;;;;;;5112676;28;20689;-61
2021/10/30 00:38:01;;;;;;;10.43;8.43;;;6.90;99.90;;;;;;5106110;22;20585;-61
2021/10/30 00:40:27;;;;;;;10.33;8.90;;;6.90;99.90;;;;;;5070962;28;20228;-61
2021/10/30 00:42:54;;;;;;;10.40;8.60;;;7.00;99.90;;;;;;5070712;28;20790;-61
2021/10/30 00:45:21;;;;;;;12.10;8.20;;;7.00;99.90;;;;;;5070634;28;20212;-60
2021/10/30 00:47:49;;;;;;;11.23;8.87;;;6.90;99.90;;;;;;5070398;28;20228;-61
2021/10/30 00:50:16;;;;;;;11.93;9.37;;;6.90;99.90;;;;;;5070660;28;20209;-61
2021/10/30 00:52:44;;;;;;;10.20;8.60;;;6.90;99.90;;;;;;5070437;28;20588;-61
2021/10/30 00:55:12;;;;;;;12.00;8.47;;;6.90;99.90;;;;;;5070604;28;20250;-61
2021/10/30 00:57:40;;;;;;;10.80;8.47;;;6.90;99.90;;;;;;5070724;28;20310;-61
2021/10/30 01:00:09;;;;;;;12.33;8.77;;;6.80;99.90;;;;;;5070477;28;20232;-61
2021/10/30 01:02:36;;;;;;;13.07;9.37;;;6.80;99.90;;;;;;5070464;28;20205;-61
2021/10/30 01:05:05;;;;;;;11.63;9.70;;;6.80;99.90;;;;;;5070661;28;20303;-61
2021/10/30 01:07:32;;;;;;;12.03;9.37;;;6.70;99.90;;;;;;5070462;28;20221;-61
2021/10/30 01:10:00;;;;;;;13.00;9.20;;;6.70;99.90;;;;;;5070398;28;20205;-61
2021/10/30 01:12:26;;;;;;;13.23;9.00;;;6.70;99.90;;;;;;5070500;28;20672;-61
2021/10/30 01:14:54;;;;;;;10.33;8.87;;;6.70;99.90;;;;;;5070252;28;20232;-60
2021/10/30 01:17:21;;;;;;;10.13;8.33;;;6.60;99.90;;;;;;5070116;28;20229;-60
2021/10/30 01:19:53;;;;;;;10.63;8.63;;;6.50;99.90;;;;;;5070020;28;20209;-61
2021/10/30 01:22:21;;;;;;;10.93;8.90;;;6.50;99.90;;;;;;5070267;28;20204;-61
2021/10/30 01:24:47;;;;;;;10.47;8.10;;;6.50;99.90;;;;;;5072731;28;20227;-61
2021/10/30 01:27:15;;;;;;;9.93;8.07;;;6.50;99.90;;;;;;5074033;28;20251;-62
2021/10/30 01:29:42;;;;;;;10.57;8.40;;;6.50;99.90;;;;;;5073857;28;20747;-61
2021/10/30 01:32:09;;;;;;;9.83;7.77;;;6.40;99.90;;;;;;5073890;28;20415;-60
2021/10/30 01:34:36;;;;;;;11.13;8.07;;;6.40;99.90;;;;;;5074039;28;20256;-62
2021/10/30 01:37:04;;;;;;;10.83;8.93;;;6.40;99.90;;;;;;5073660;28;20216;-61
2021/10/30 01:39:31;;;;;;;10.93;8.20;;;6.40;99.90;;;;;;5073665;28;20611;-61
2021/10/30 01:41:58;;;;;;;11.20;8.80;;;6.40;99.90;;;;;;5073680;28;20212;-61
2021/10/30 01:44:25;;;;;;;13.77;8.63;;;6.60;99.90;;;;;;5073730;28;20204;-61
2021/10/30 01:46:57;;;;;;;11.20;8.03;;;6.60;99.90;;;;;;5073847;28;20217;-60
2021/10/30 01:49:24;;;;;;;9.27;7.97;;;6.60;99.90;;;;;;5073893;28;20588;-61
2021/10/30 01:51:50;;;;;;;8.80;7.70;;;6.60;99.90;;;;;;5073847;28;20668;-61
2021/10/30 01:54:19;;;;;;;8.93;8.00;;;6.50;99.90;;;;;;5073628;28;20273;-62
2021/10/30 01:56:45;;;;;;;12.30;9.40;;;6.50;99.90;;;;;;5073542;28;20699;-61
2021/10/30 01:59:12;;;;;;;16.40;10.67;;;6.50;99.90;;;;;;5073361;28;20204;-61
2021/10/30 02:01:39;;;;;;;11.67;8.63;;;6.50;99.90;;;;;;5073659;28;20589;-61
2021/10/30 02:04:05;;;;;;;10.70;8.93;;;6.50;99.90;;;;;;5073465;28;20201;-61
2021/10/30 02:06:32;;;;;;;11.17;9.00;;;6.50;99.90;;;;;;5073772;28;20205;-60
2021/10/30 02:08:59;;;;;;;11.97;9.40;;;6.50;99.90;;;;;;5073140;28;20224;-61
2021/10/30 02:11:27;;;;;;;11.97;9.50;;;6.60;99.90;;;;;;5073138;28;20205;-61
2021/10/30 02:13:53;;;;;;;10.97;9.00;;;6.60;99.90;;;;;;5072995;28;20221;-61
2021/10/30 02:16:20;;;;;;;11.27;9.33;;;6.70;99.90;;;;;;5073297;28;20208;-61
2021/10/30 02:18:47;;;;;;;12.37;9.77;;;6.80;99.90;;;;;;5073080;28;20221;-61
2021/10/30 02:21:13;;;;;;;11.47;9.57;;;6.90;99.90;;;;;;5073177;28;20208;-61
2021/10/30 02:23:40;;;;;;;17.47;10.83;;;7.00;99.90;;;;;;5072753;28;20213;-60
2021/10/30 02:26:07;;;;;;;10.40;8.57;;;6.90;99.90;;;;;;5073573;28;20609;-60
2021/10/30 02:28:35;;;;;;;11.70;8.20;;;6.90;99.90;;;;;;5074054;28;20240;-60
2021/10/30 02:31:02;;;;;;;17.53;12.57;;;6.80;99.90;;;;;;5073249;28;20576;-60
2021/10/30 02:33:28;;;;;;;10.70;8.80;;;6.70;99.90;;;;;;5072713;28;20205;-60
2021/10/30 02:35:55;;;;;;;9.93;7.97;;;6.70;99.90;;;;;;5072338;28;20208;-61
2021/10/30 02:38:22;;;;;;;10.90;8.60;;;6.70;99.90;;;;;;5072472;28;20240;-60
2021/10/30 02:40:48;;;;;;;11.07;8.37;;;6.80;99.90;;;;;;5072580;28;20254;-60
2021/10/30 02:43:15;;;;;;;10.13;8.47;;;6.80;99.90;;;;;;5073039;28;20205;-61
2021/10/30 02:45:43;;;;;;;9.47;8.13;;;6.80;99.90;;;;;;5072687;28;20692;-60
2021/10/30 02:48:10;;;;;;;11.07;8.90;;;6.80;99.90;;;;;;5072353;28;20229;-60
2021/10/30 02:50:37;;;;;;;10.17;8.63;;;6.70;99.90;;;;;;5072841;28;20221;-61
2021/10/30 02:53:03;;;;;;;11.07;8.73;;;6.70;99.90;;;;;;5072494;28;20212;-60
2021/10/30 02:55:30;;;;;;;12.67;9.70;;;6.50;99.90;;;;;;5072247;28;20282;-61
2021/10/30 02:57:57;;;;;;;11.47;8.40;;;6.30;99.90;;;;;;5072061;28;20600;-60
2021/10/30 03:00:24;;;;;;;8.70;7.67;;;6.20;99.90;;;;;;5072600;28;20205;-61
2021/10/30 03:02:52;;;;;;;10.40;8.23;;;6.00;99.90;;;;;;5072468;28;20208;-61
2021/10/30 03:05:20;;;;;;;9.07;7.90;;;5.90;99.90;;;;;;5072184;28;20703;-61
2021/10/30 03:07:46;;;;;;;9.80;7.90;;;6.00;99.90;;;;;;5072319;28;20225;-61
2021/10/30 03:10:13;;;;;;;10.03;8.40;;;6.00;99.90;;;;;;5072237;28;20687;-60
2021/10/30 03:12:40;;;;;;;11.97;8.93;;;6.20;99.90;;;;;;5072519;28;20205;-61
2021/10/30 03:15:07;;;;;;;10.87;8.43;;;6.20;99.90;;;;;;5072473;28;20224;-61
2021/10/30 03:17:34;;;;;;;11.47;8.27;;;6.30;99.90;;;;;;5072195;28;20228;-59
2021/10/30 03:20:02;;;;;;;9.37;8.37;;;6.40;99.90;;;;;;5071948;28;20209;-61
2021/10/30 03:22:29;;;;;;;11.23;8.20;;;6.40;99.90;;;;;;5071753;28;20292;-61
2021/10/30 03:24:56;;;;;;;10.70;8.40;;;6.50;99.90;;;;;;5071538;28;20246;-60
2021/10/30 03:27:23;;;;;;;9.27;7.93;;;6.50;99.90;;;;;;5071870;28;20237;-61
2021/10/30 03:29:49;;;;;;;9.70;8.70;;;6.60;99.90;;;;;;5071634;28;20213;-60
2021/10/30 03:32:16;;;;;;;10.63;7.67;;;6.50;99.90;;;;;;5071757;28;20215;-60
2021/10/30 03:34:43;;;;;;;9.53;7.73;;;6.60;99.90;;;;;;5071440;28;20270;-61
2021/10/30 03:37:11;;;;;;;12.47;8.53;;;6.60;99.90;;;;;;5071387;28;20232;-60
2021/10/30 03:39:38;;;;;;;11.20;8.43;;;6.60;99.90;;;;;;5071421;28;20672;-61
2021/10/30 03:42:06;;;;;;;13.07;8.87;;;6.50;99.90;;;;;;5071961;28;20201;-60
2021/10/30 03:44:32;;;;;;;10.27;8.43;;;6.50;99.90;;;;;;5071454;28;20203;-61
2021/10/30 03:46:59;;;;;;;10.17;8.93;;;6.60;99.90;;;;;;5070638;28;20201;-60
2021/10/30 03:49:26;;;;;;;9.93;8.93;;;6.50;99.90;;;;;;5071290;28;20213;-61
2021/10/30 03:51:53;;;;;;;11.43;8.20;;;6.50;99.90;;;;;;5071428;28;20217;-61
2021/10/30 03:54:21;;;;;;;10.33;7.83;;;6.40;99.90;;;;;;5071252;28;20224;-60
2021/10/30 03:56:48;;;;;;;10.20;7.73;;;6.30;99.90;;;;;;5071209;28;20209;-61
2021/10/30 03:59:15;;;;;;;9.63;8.20;;;6.20;99.90;;;;;;5071045;28;20212;-61
2021/10/30 04:01:42;;;;;;;10.43;8.83;;;6.00;99.90;;;;;;5071210;28;20580;-60
2021/10/30 04:04:09;;;;;;;10.03;8.47;;;5.90;99.90;;;;;;5071005;28;20236;-60
2021/10/30 04:06:36;;;;;;;9.30;7.70;;;5.90;99.90;;;;;;5071270;28;20208;-59
2021/10/30 04:09:03;;;;;;;10.93;8.10;;;5.90;99.90;;;;;;5070778;28;20235;-60
2021/10/30 04:11:32;;;;;;;8.80;7.57;;;5.80;99.90;;;;;;5071083;28;20616;-59
2021/10/30 04:13:58;;;;;;;9.67;8.20;;;5.70;99.90;;;;;;5070817;28;20730;-60
2021/10/30 04:16:25;;;;;;;9.70;7.73;;;5.70;99.90;;;;;;5070925;28;20228;-61
2021/10/30 04:18:52;;;;;;;12.87;7.60;;;5.70;99.90;;;;;;5070943;28;20532;-60
2021/10/30 04:21:18;;;;;;;10.33;7.57;;;5.60;99.90;;;;;;5071306;28;20208;-61
2021/10/30 04:23:45;;;;;;;9.20;7.47;;;5.60;99.90;;;;;;5071479;28;20205;-60
2021/10/30 04:26:12;;;;;;;10.80;7.87;;;5.50;99.90;;;;;;5071497;28;20204;-61
2021/10/30 04:28:40;;;;;;;10.57;7.07;;;5.50;99.90;;;;;;5070704;28;20229;-61
2021/10/30 04:31:08;;;;;;;10.57;8.10;;;5.60;99.90;;;;;;5070868;28;20377;-60
2021/10/30 04:33:41;;;;;;;10.87;7.63;;;5.70;99.90;;;;;;5070828;28;20213;-60
2021/10/30 04:36:14;;;;;;;12.27;8.40;;;5.60;99.90;;;;;;5071055;28;20201;-61
2021/10/30 04:38:41;;;;;;;11.40;8.40;;;5.70;99.90;;;;;;5070602;28;20229;-60
2021/10/30 04:41:08;;;;;;;11.07;8.27;;;5.90;99.90;;;;;;5070802;28;20200;-63
2021/10/30 04:43:35;;;;;;;11.63;8.77;;;6.00;99.90;;;;;;5070538;28;20636;-60
2021/10/30 04:46:03;;;;;;;12.23;8.00;;;6.10;99.90;;;;;;5070835;28;20229;-61
2021/10/30 04:48:31;;;;;;;11.60;8.17;;;6.20;99.90;;;;;;5070834;28;20229;-61
2021/10/30 04:50:58;;;;;;;10.07;7.80;;;6.30;99.90;;;;;;5070723;28;20282;-61
2021/10/30 04:53:25;;;;;;;10.03;7.53;;;6.40;99.90;;;;;;5070506;28;20628;-60
2021/10/30 04:55:51;;;;;;;10.63;7.17;;;6.50;99.90;;;;;;5070644;28;20212;-61
2021/10/30 04:58:18;;;;;;;9.93;6.90;;;6.50;99.90;;;;;;5072222;28;20220;-61
2021/10/30 05:00:45;;;;;;;10.23;7.53;;;6.50;99.90;;;;;;5074930;28;20209;-61
2021/10/30 05:03:13;;;;;;;10.57;7.73;;;6.40;99.90;;;;;;5074584;28;20677;-61
2021/10/30 05:05:39;;;;;;;9.30;7.40;;;6.40;99.90;;;;;;5074231;28;20700;-63
2021/10/30 05:08:06;;;;;;;10.27;7.57;;;6.40;99.90;;;;;;5074347;28;20232;-60
2021/10/30 05:10:33;;;;;;;9.43;7.47;;;6.40;99.90;;;;;;5074473;28;20213;-61
2021/10/30 05:12:59;;;;;;;10.53;7.60;;;6.50;99.90;;;;;;5074311;28;20209;-61
2021/10/30 05:15:26;;;;;;;8.07;7.13;;;6.50;99.90;;;;;;5074560;28;20278;-61
2021/10/30 05:17:53;;;;;;;13.10;9.13;;;6.60;99.90;;;;;;5074322;28;20229;-60
2021/10/30 05:20:21;;;;;;;9.87;7.60;;;6.70;99.90;;;;;;5074440;28;20274;-61
2021/10/30 05:22:48;;;;;;;10.70;7.70;;;6.70;99.90;;;;;;5074329;28;20216;-61
2021/10/30 05:25:14;;;;;;;11.30;7.77;;;6.80;99.90;;;;;;5073885;28;20224;-61
2021/10/30 05:27:41;;;;;;;9.50;8.00;;;6.80;99.90;;;;;;5073893;28;20608;-61
2021/10/30 05:30:09;;;;;;;10.97;8.67;;;6.70;99.90;;;;;;5074155;28;20209;-61
2021/10/30 05:32:35;;;;;;;10.13;7.70;;;6.80;99.90;;;;;;5074222;28;20479;-61
2021/10/30 05:35:02;;;;;;;11.27;8.33;;;6.70;99.90;;;;;;5073996;28;20201;-62
2021/10/30 05:37:30;;;;;;;8.87;6.90;;;6.70;99.90;;;;;;5074080;28;20240;-62
2021/10/30 05:39:57;;;;;;;9.10;7.90;;;6.70;99.90;;;;;;5073966;28;20209;-62
2021/10/30 05:42:24;;;;;;;10.23;7.23;;;6.60;99.90;;;;;;5074491;28;20205;-62
2021/10/30 05:44:50;;;;;;;8.20;7.03;;;6.60;99.90;;;;;;5074813;28;20228;-62
2021/10/30 05:47:18;;;;;;;8.87;7.37;;;6.60;99.90;;;;;;5074088;28;20225;-62
2021/10/30 05:49:45;;;;;;;10.70;7.60;;;6.50;99.90;;;;;;5073955;28;20209;-63
2021/10/30 05:52:13;;;;;;;10.47;8.20;;;6.50;99.90;;;;;;5073913;28;20208;-62
2021/10/30 05:54:41;;;;;;;9.67;7.70;;;6.50;99.90;;;;;;5073446;28;20208;-61
2021/10/30 05:57:10;;;;;;;10.20;7.80;;;6.40;99.90;;;;;;5073820;28;20281;-60
2021/10/30 05:59:37;;;;;;;8.97;7.77;;;6.50;99.90;;;;;;5074040;28;20293;-62
2021/10/30 06:02:05;;;;;;;9.43;7.43;;;6.40;99.90;;;;;;5073584;28;20700;-62
2021/10/30 06:04:32;;;;;;;12.10;8.40;;;6.30;99.90;;;;;;5073418;28;20553;-60
2021/10/30 06:06:59;;;;;;;10.37;8.53;;;6.30;99.90;;;;;;5073412;28;20247;-61
2021/10/30 06:09:25;;;;;;;9.73;7.50;;;6.30;99.90;;;;;;5072890;28;20201;-60
2021/10/30 06:11:53;;;;;;;12.70;8.37;;;6.20;99.90;;;;;;5074757;28;20209;-61
2021/10/30 06:14:20;;;;;;;33.27;20.20;;;6.20;99.90;;;;;;5075564;28;20205;-61
2021/10/30 06:16:47;;;;;;;10.43;8.40;;;6.20;99.90;;;;;;5073393;28;20204;-60
2021/10/30 06:19:14;;;;;;;10.80;7.97;;;6.20;99.90;;;;;;5073101;28;20205;-60
2021/10/30 06:21:41;;;;;;;7.80;7.00;;;6.30;99.90;;;;;;5073175;28;20209;-60
2021/10/30 06:24:07;;;;;;;9.13;7.23;;;6.30;99.90;;;;;;5073212;28;20216;-61
2021/10/30 06:26:34;;;;;;;10.33;8.60;;;6.30;99.90;;;;;;5073004;28;20228;-60
2021/10/30 06:29:03;;;;;;;15.63;9.37;;;6.40;99.90;;;;;;5073095;28;20339;-61
2021/10/30 06:31:30;;;;;;;9.30;7.50;;;6.20;99.90;;;;;;5073161;28;20273;-61
2021/10/30 06:33:57;;;;;;;10.23;7.20;;;6.30;99.90;;;;;;5072821;28;20712;-60
2021/10/30 06:36:23;;;;;;;8.97;6.97;;;6.20;99.90;;;;;;5072946;28;20201;-60
2021/10/30 06:38:50;;;;;;;10.80;6.40;;;6.20;99.90;;;;;;5073212;28;20232;-58
2021/10/30 06:41:17;;;;;;;7.33;6.30;;;6.20;99.90;;;;;;5072970;28;20207;-59
2021/10/30 06:43:44;;;;;;;9.57;6.73;;;6.20;99.90;;;;;;5072712;28;20212;-58
2021/10/30 06:46:12;;;;;;;8.77;6.10;;;6.30;99.90;;;;;;5072693;28;20221;-58
2021/10/30 06:48:38;;;;;;;8.97;6.23;;;6.70;99.90;;;;;;5072553;28;20270;-58
2021/10/30 06:51:06;;;;;;;8.90;6.10;;;7.20;99.90;;;;;;5072654;28;20221;-60
2021/10/30 06:53:33;;;;;;;7.47;5.77;;;7.60;99.90;;;;;;5072741;28;20692;-58
2021/10/30 06:56:00;;;;;;;9.33;5.60;;;7.80;99.90;;;;;;5072831;28;20220;-60
2021/10/30 06:58:28;;;;;;;9.23;6.20;;;7.90;99.90;;;;;;5072376;28;20229;-58
2021/10/30 07:00:55;;;;;;;7.33;5.67;;;7.90;99.90;;;;;;5072425;28;20602;-58
2021/10/30 07:03:23;;;;;;;7.77;5.87;;;7.90;99.90;;;;;;5072208;28;20238;-59
2021/10/30 07:05:50;;;;;;;7.73;5.87;;;7.90;99.90;;;;;;5072450;28;20229;-59
2021/10/30 07:08:17;;;;;;;7.17;5.73;;;7.90;99.90;;;;;;5071907;28;20640;-58
2021/10/30 07:10:44;;;;;;;6.57;5.63;;;7.90;99.90;;;;;;5072084;28;20688;-58
2021/10/30 07:13:12;;;;;;;8.73;5.97;;;7.90;99.90;;;;;;5072249;28;20212;-58
2021/10/30 07:15:38;;;;;;;7.40;5.70;;;8.10;99.90;;;;;;5071814;28;20243;-59
2021/10/30 07:18:05;;;;;;;8.07;5.93;;;8.20;99.90;;;;;;5071847;28;20236;-59
2021/10/30 07:20:33;;;;;;;8.97;5.97;;;8.40;99.90;;;;;;5072068;28;20209;-59
2021/10/30 07:23:00;;;;;;;8.93;6.63;;;8.50;99.90;;;;;;5071978;28;20200;-59
2021/10/30 07:25:27;;;;;;;11.70;6.70;;;8.60;99.90;;;;;;5072034;28;20224;-58
2021/10/30 07:27:53;;;;;;;8.03;6.73;;;8.90;99.90;;;;;;5071605;28;20536;-59
2021/10/30 07:30:21;;;;;;;9.00;6.87;;;9.20;99.90;;;;;;5071653;28;20563;-59
2021/10/30 07:32:51;;;;;;;8.30;6.17;;;9.40;99.90;;;;;;5071849;28;20243;-59
2021/10/30 07:35:18;;;;;;;10.10;6.20;;;9.70;99.90;;;;;;5071486;28;20204;-60
2021/10/30 07:37:47;;;;;;;7.73;6.10;;;9.90;99.90;;;;;;5071425;28;20330;-60
2021/10/30 07:40:14;;;;;;;8.83;6.00;;;10.10;99.90;;;;;;5071593;28;20212;-59
2021/10/30 07:42:43;;;;;;;8.50;6.33;;;10.20;99.90;;;;;;5071543;28;20692;-58
2021/10/30 07:45:10;;;;;;;7.57;6.03;;;10.50;99.90;;;;;;5071602;28;20220;-56
2021/10/30 07:47:37;;;;;;;7.50;5.67;;;10.70;99.90;;;;;;5071253;28;20603;-56
2021/10/30 07:50:06;;;;;;;7.50;6.23;;;10.90;99.90;;;;;;5071338;28;20669;-58
2021/10/30 07:52:32;;;;;;;9.60;6.40;;;11.00;99.90;;;;;;5071429;28;20212;-56
2021/10/30 07:55:00;;;;;;;7.23;6.00;;;11.20;99.90;;;;;;5071390;28;20212;-56
2021/10/30 07:57:27;;;;;;;8.47;5.43;;;11.30;99.90;;;;;;5071326;28;20311;-57
2021/10/30 07:59:54;;;;;;;7.77;6.13;;;11.30;99.90;;;;;;5071655;28;20876;-58
2021/10/30 08:02:22;;;;;;;13.27;10.73;;;11.30;99.90;;;;;;5071756;28;20205;-57
2021/10/30 08:04:48;;;;;;;16.70;10.97;;;11.30;99.90;;;;;;5071613;28;20209;-59
2021/10/30 08:07:15;;;;;;;14.10;11.33;;;11.30;99.90;;;;;;5071253;28;20229;-58
2021/10/30 08:09:43;;;;;;;17.27;11.43;;;11.20;99.90;;;;;;5071116;28;20212;-57
2021/10/30 08:12:12;;;;;;;15.73;10.20;;;11.40;99.90;;;;;;5071043;28;20599;-57
2021/10/30 08:14:40;;;;;;;13.53;9.80;;;11.40;99.90;;;;;;5071077;28;20631;-57
2021/10/30 08:17:07;;;;;;;13.17;9.90;;;11.60;99.90;;;;;;5071214;28;20422;-57
2021/10/30 08:19:33;;;;;;;12.67;9.87;;;11.60;99.90;;;;;;5070949;28;20292;-58
2021/10/30 08:22:01;;;;;;;15.27;11.27;;;11.70;99.90;;;;;;5070825;28;20216;-57
2021/10/30 08:24:28;;;;;;;16.03;9.20;;;11.80;99.90;;;;;;5070850;28;20200;-57
2021/10/30 08:26:55;;;;;;;10.17;8.30;;;11.70;99.90;;;;;;5071049;28;20232;-58
2021/10/30 08:29:23;;;;;;;14.50;10.00;;;11.60;99.90;;;;;;5070954;28;20300;-57
2021/10/30 08:31:50;;;;;;;13.13;9.33;;;11.50;99.90;;;;;;5071152;28;20200;-57
2021/10/30 08:34:17;;;;;;;16.27;10.37;;;11.60;99.90;;;;;;5070147;28;20605;-56
2021/10/30 08:36:43;;;;;;;13.80;11.03;;;11.90;99.90;;;;;;5070629;28;20204;-56
2021/10/30 08:39:10;;;;;;;13.40;10.70;;;12.10;99.90;;;;;;5070156;28;20576;-58
2021/10/30 08:41:37;;;;;;;15.20;11.43;;;12.20;99.90;;;;;;5070980;28;20213;-58
2021/10/30 08:44:04;;;;;;;13.70;10.27;;;12.30;99.90;;;;;;5070656;28;20201;-56
2021/10/30 08:46:33;;;;;;;16.90;11.50;;;12.50;99.90;;;;;;5070610;28;20723;-58
2021/10/30 08:49:01;;;;;;;16.17;12.00;;;12.90;99.90;;;;;;5070445;28;20225;-57
2021/10/30 08:51:28;;;;;;;14.70;11.03;;;13.10;99.90;;;;;;5070643;28;20620;-56
2021/10/30 08:53:55;;;;;;;19.80;10.73;;;13.30;99.90;;;;;;5070441;28;20857;-57
2021/10/30 08:56:23;;;;;;;17.20;11.10;;;13.40;99.90;;;;;;5070509;28;20220;-57
2021/10/30 08:58:50;;;;;;;16.77;11.67;;;13.60;99.90;;;;;;5070544;28;20282;-57
2021/10/30 09:01:17;;;;;;;16.90;11.67;;;13.80;99.90;;;;;;5070729;28;20216;-57
2021/10/30 09:03:56;;;;;;;17.43;11.73;;;14.00;99.90;;;;;;5070386;28;20679;-57
2021/10/30 09:06:32;;;;;;;17.40;11.97;;;14.20;99.90;;;;;;5070372;28;20282;-56
2021/10/30 09:09:14;;;;;;;28.70;17.40;;;14.00;99.90;;;;;;5070523;28;20221;-56
2021/10/30 09:11:54;;;;;;;20.07;13.97;;;13.70;99.90;;;;;;5070517;28;20207;-56
2021/10/30 09:14:22;;;;;;;17.33;12.10;;;13.40;99.90;;;;;;5070683;28;20233;-56
2021/10/30 09:17:15;;;;;;;16.60;11.20;;;13.50;99.90;;;;;;5070331;28;20207;-62
2021/10/30 09:19:47;;;;;;;17.23;11.40;;;13.40;99.90;;;;;;5068703;28;20224;-56
2021/10/30 09:22:15;;;;;;;15.27;10.30;;;13.50;99.90;;;;;;5070447;28;20205;-55
2021/10/30 09:25:02;;;;;;;11.70;9.00;;;13.50;99.90;;;;;;5068848;28;20209;-56
2021/10/30 09:27:50;;;;;;;12.03;9.00;;;13.70;99.90;;;;;;5070120;28;20225;-55
2021/10/30 09:30:19;;;;;;;14.43;9.00;;;14.10;99.90;;;;;;5070252;28;20213;-55
2021/10/30 09:32:54;;;;;;;8.87;6.80;;;14.30;99.90;;;;;;5070656;28;20206;-56
2021/10/30 09:35:31;;;;;;;9.00;6.80;;;14.60;99.90;;;;;;5070071;28;20345;-55
2021/10/30 09:37:57;;;;;;;7.93;6.80;;;14.70;99.90;;;;;;5070109;28;20625;-55
2021/10/30 09:40:26;;;;;;;9.37;7.30;;;14.80;99.90;;;;;;5070228;28;20216;-56
2021/10/30 09:43:13;;;;;;;11.20;7.30;;;14.60;99.90;;;;;;5070052;28;20581;-56
2021/10/30 09:45:43;;;;;;;13.60;8.10;;;14.20;99.90;;;;;;5072034;28;20219;-55
2021/10/30 09:48:10;;;;;;;12.50;8.53;;;13.80;99.90;;;;;;5073298;28;20242;-54
2021/10/30 09:50:38;;;;;;;9.27;7.70;;;14.00;99.90;;;;;;5073589;28;20231;-56
2021/10/30 09:53:35;;;;;;;8.77;7.77;;;14.20;99.90;;;;;;5073624;28;20209;-55
2021/10/30 09:56:04;;;;;;;11.47;7.90;;;14.00;99.90;;;;;;5073605;28;20287;-55
2021/10/30 09:58:33;;;;;;;12.37;7.50;;;13.70;99.90;;;;;;5073239;28;20232;-57
2021/10/30 10:01:02;;;;;;;12.00;8.60;;;13.40;99.90;;;;;;5073773;28;20201;-55
2021/10/30 10:03:31;;;;;;;10.53;8.07;;;13.40;99.90;;;;;;5073455;28;20235;-55
2021/10/30 10:06:02;;;;;;;9.80;8.37;;;13.50;99.90;;;;;;5073320;28;20219;-56
2021/10/30 10:08:29;;;;;;;12.13;8.73;;;13.50;99.90;;;;;;5073350;28;20252;-55
2021/10/30 10:10:57;;;;;;;12.93;9.00;;;13.60;99.90;;;;;;5073915;28;20208;-55
2021/10/30 10:13:24;;;;;;;13.80;9.37;;;13.70;99.90;;;;;;5073280;28;20205;-55
2021/10/30 10:15:51;;;;;;;10.90;9.67;;;13.80;99.90;;;;;;5073746;28;20219;-58
2021/10/30 10:18:18;;;;;;;9.80;8.00;;;13.70;99.90;;;;;;5073528;28;20315;-55
2021/10/30 10:20:47;;;;;;;10.43;8.27;;;13.70;99.90;;;;;;5073651;28;20209;-55
2021/10/30 10:23:15;;;;;;;13.53;8.50;;;13.70;99.90;;;;;;5073213;28;20209;-55
2021/10/30 10:25:50;;;;;;;11.43;8.27;;;13.70;99.90;;;;;;5073613;28;20205;-55
2021/10/30 10:28:29;;;;;;;9.27;7.60;;;13.70;99.90;;;;;;5073406;28;20239;-56
2021/10/30 10:31:02;;;;;;;8.80;7.13;;;13.70;99.90;;;;;;5073928;28;20227;-55
2021/10/30 10:33:30;;;;;;;10.10;6.90;;;13.60;99.90;;;;;;5073913;28;20305;-57
2021/10/30 10:36:23;;;;;;;9.10;6.57;;;13.70;99.90;;;;;;5073947;28;20204;-56
2021/10/30 10:39:15;;;;;;;8.70;6.63;;;13.60;99.90;;;;;;5073472;28;20240;-58
2021/10/30 10:41:55;;;;;;;12.27;7.80;;;13.60;99.90;;;;;;5073750;28;20201;-57
2021/10/30 10:44:59;;;;;;;11.17;6.97;;;13.60;99.90;;;;;;5073651;28;20204;-57
2021/10/30 10:47:51;;;;;;;12.50;8.03;;;13.50;99.90;;;;;;5073620;28;20255;-56
2021/10/30 10:50:23;;;;;;;12.33;7.60;;;13.50;99.90;;;;;;5073094;28;20205;-55
2021/10/30 10:53:23;;;;;;;14.73;8.40;;;13.40;99.90;;;;;;5072498;28;20201;-56
2021/10/30 10:56:15;;;;;;;13.07;8.87;;;13.40;99.90;;;;;;5072195;28;20212;-56
2021/10/30 10:59:16;;;;;;;11.97;8.67;;;13.40;99.90;;;;;;5072262;28;20231;-57
2021/10/30 11:02:19;;;;;;;10.77;8.30;;;13.40;99.90;;;;;;5072557;28;20204;-57
2021/10/30 11:05:24;;;;;;;12.93;9.00;;;13.50;99.90;;;;;;5072092;28;20609;-58
2021/10/30 11:08:22;;;;;;;12.67;9.10;;;13.40;99.90;;;;;;5071872;28;20235;-56
2021/10/30 11:10:49;;;;;;;12.37;8.60;;;13.30;99.90;;;;;;5071994;28;20673;-56
2021/10/30 11:13:21;;;;;;;13.17;9.00;;;13.30;99.90;;;;;;5072095;28;20212;-57
2021/10/30 11:15:52;;;;;;;14.57;8.80;;;13.30;99.90;;;;;;5072176;28;20209;-57
2021/10/30 11:18:30;;;;;;;11.53;8.07;;;13.20;99.90;;;;;;5071929;28;20245;-58
2021/10/30 11:21:14;;;;;;;11.03;8.50;;;13.20;99.90;;;;;;5072339;28;20660;-57
2021/10/30 11:23:46;;;;;;;12.63;9.03;;;13.30;99.90;;;;;;5071758;28;20201;-56
2021/10/30 11:26:19;;;;;;;12.60;8.43;;;13.40;99.90;;;;;;5071817;28;20665;-56
2021/10/30 11:28:47;;;;;;;10.67;8.30;;;13.40;99.90;;;;;;5071794;28;20277;-58
2021/10/30 11:31:16;;;;;;;14.00;8.33;;;13.40;99.90;;;;;;5071810;28;20205;-57
2021/10/30 11:33:44;;;;;;;11.93;9.53;;;13.50;99.90;;;;;;5071422;28;20673;-56
2021/10/30 11:36:13;;;;;;;18.13;8.77;;;13.30;99.90;;;;;;5071587;28;20212;-56
2021/10/30 11:38:50;;;;;;;12.57;9.07;;;13.30;99.90;;;;;;5071257;28;20233;-56
2021/10/30 11:41:19;;;;;;;12.40;10.10;;;13.30;99.90;;;;;;5071762;28;20215;-56
2021/10/30 11:43:48;;;;;;;10.67;8.20;;;13.30;99.90;;;;;;5071387;28;20209;-56
2021/10/30 11:46:16;;;;;;;10.40;8.23;;;13.30;99.90;;;;;;5071873;28;20211;-56
2021/10/30 11:48:45;;;;;;;14.27;12.00;;;13.20;99.90;;;;;;5071182;28;20237;-56
2021/10/30 11:51:13;;;;;;;10.77;8.20;;;13.20;99.90;;;;;;5071504;28;20656;-57
2021/10/30 11:53:41;;;;;;;15.10;8.90;;;13.20;99.90;;;;;;5071441;28;20208;-55
2021/10/30 11:56:11;;;;;;;10.10;8.23;;;13.20;99.90;;;;;;5071860;28;20761;-55
2021/10/30 11:58:43;;;;;;;10.53;7.90;;;13.30;99.90;;;;;;5071856;28;20312;-56
2021/10/30 12:01:25;;;;;;;13.00;9.40;;;13.10;99.90;;;;;;5071812;28;20212;-56
2021/10/30 12:03:54;;;;;;;9.47;7.70;;;13.00;99.90;;;;;;5071439;28;20204;-55
2021/10/30 12:06:21;;;;;;;14.17;8.40;;;13.10;99.90;;;;;;5071234;28;20238;-56
2021/10/30 12:08:48;;;;;;;9.97;7.67;;;13.10;99.90;;;;;;5070393;28;20289;-56
2021/10/30 12:11:15;;;;;;;14.07;8.43;;;13.00;99.90;;;;;;5071156;28;20212;-56
2021/10/30 12:13:47;;;;;;;11.00;8.30;;;12.80;99.90;;;;;;5070942;28;20231;-56
2021/10/30 12:16:14;;;;;;;11.07;8.30;;;12.80;99.90;;;;;;5071272;28;20211;-56
2021/10/30 12:18:44;;;;;;;13.93;9.37;;;12.80;99.90;;;;;;5070787;28;20224;-58
2021/10/30 12:21:12;;;;;;;13.17;10.00;;;12.60;99.90;;;;;;5071120;28;20201;-56
2021/10/30 12:23:53;;;;;;;13.23;10.13;;;12.30;99.90;;;;;;5070859;28;20219;-56
2021/10/30 12:26:20;;;;;;;13.10;9.53;;;12.10;99.90;;;;;;5070863;28;20201;-56
2021/10/30 12:28:49;;;;;;;14.10;10.00;;;11.70;99.90;;;;;;5070960;28;20234;-56
2021/10/30 12:31:26;;;;;;;13.67;10.10;;;11.60;99.90;;;;;;5070847;28;20710;-56
2021/10/30 12:33:54;;;;;;;16.40;11.50;;;11.70;99.90;;;;;;5070897;28;20295;-58
2021/10/30 12:36:21;;;;;;;14.03;11.33;;;11.50;99.90;;;;;;5070817;28;20212;-57
2021/10/30 12:38:54;;;;;;;15.30;11.03;;;11.70;99.90;;;;;;5105574;23;20232;-60
2021/10/30 12:41:21;;;;;;;14.07;11.50;;;11.70;99.90;;;;;;5090917;28;20625;-59
2021/10/30 12:43:48;;;;;;;13.23;9.97;;;11.80;99.90;;;;;;5090765;28;20208;-59
2021/10/30 12:46:16;;;;;;;12.60;10.03;;;11.90;99.90;;;;;;5090774;28;20579;-60
2021/10/30 12:48:44;;;;;;;11.70;9.20;;;11.90;99.90;;;;;;5077757;28;20771;-60
2021/10/30 12:51:16;;;;;;;13.07;10.40;;;12.00;99.90;;;;;;5070624;28;20219;-59
2021/10/30 12:53:45;;;;;;;12.63;9.73;;;12.20;99.90;;;;;;5070856;28;20208;-59